Archival Weather

Chicago/Rockford Intl

Rockford, Illinois (KRFD)

Report from: Friday, February 3, 2023 9:54 AM CST
Current time: Tuesday, June 25, 2024 3:15 AM CDT

Current weather – Weather history – Daily summaries
Weather forecast

Temperature-17.8°C (-0.0°F)
Wind chill-26.8°C (-16.3°F)
Dew point-25.6°C (-14.1°F)
Winds 9 kts (4.6 m/s, 10.4 mph) Northwest (320°)
Visibility10 mi. (16.1 km)
Clouds Scattered clouds 12,000 ft. (3,658 m)
Altimeter30.66 in.Hg (1038 mB)
Relative humidity50 %
Density altitude-5,082 ft. (-1,549 m)
Sea-level pressure104.0 kPa (1040 mB, 30.71 in.Hg)
Remarks Automated weather observing station with precipitation discriminator
Flight conditions Visual Meteorological Conditions
Raw dataKRFD 031554Z 32009KT 10SM SCT120 M18/M26 A3066 RMK AO2 SLP401 T11781256
An unhandled exception has occurred. See browser dev tools for details. Reload 🗙